createdAt,value
2023-06-10T00:00:15.970Z,20.70
2023-06-10T00:02:45.545Z,20.80
2023-06-10T00:05:13.849Z,24.48
2023-06-10T00:07:42.638Z,19.02
2023-06-10T00:10:11.761Z,17.48
2023-06-10T00:12:42.922Z,21.77
2023-06-10T00:15:12.260Z,21.05
2023-06-10T00:17:42.040Z,23.10
2023-06-10T00:20:13.146Z,22.42
2023-06-10T00:22:43.022Z,23.30
2023-06-10T00:25:12.221Z,24.38
2023-06-10T00:27:41.983Z,18.70
2023-06-10T00:30:11.058Z,25.27
2023-06-10T00:32:39.452Z,19.02
2023-06-10T00:35:09.224Z,18.27
2023-06-10T00:37:37.725Z,19.05
2023-06-10T00:40:06.984Z,20.08
2023-06-10T00:42:35.247Z,21.58
2023-06-10T00:45:05.144Z,23.77
2023-06-10T00:47:33.932Z,22.70
2023-06-10T00:50:02.254Z,18.40
2023-06-10T00:52:31.912Z,22.48
2023-06-10T00:55:00.666Z,15.95
2023-06-10T00:57:30.543Z,21.77
2023-06-10T00:59:59.744Z,17.55
2023-06-10T01:02:30.262Z,21.95
2023-06-10T01:05:02.705Z,21.33
2023-06-10T01:07:38.408Z,22.17
2023-06-10T01:10:14.197Z,25.05
2023-06-10T01:12:49.820Z,21.08
2023-06-10T01:15:19.430Z,17.17
2023-06-10T01:18:03.677Z,19.83
2023-06-10T01:20:34.993Z,20.98
2023-06-10T01:23:05.283Z,20.92
2023-06-10T01:25:37.284Z,20.67
2023-06-10T01:28:09.280Z,18.20
2023-06-10T01:30:44.879Z,20.10
2023-06-10T01:33:15.422Z,25.23
2023-06-10T01:35:46.277Z,17.27
2023-06-10T01:40:45.371Z,19.48
2023-06-10T01:43:13.910Z,22.35
2023-06-10T01:45:42.055Z,20.13
2023-06-10T01:48:10.149Z,21.10
2023-06-10T01:50:38.304Z,21.23
2023-06-10T01:53:07.413Z,19.63
2023-06-10T01:55:39.358Z,19.90
2023-06-10T01:58:07.467Z,20.38
2023-06-10T02:00:35.874Z,18.42
2023-06-10T02:03:04.162Z,22.85
2023-06-10T02:05:32.374Z,20.48
2023-06-10T02:08:00.669Z,23.98
2023-06-10T02:10:28.939Z,24.85
2023-06-10T02:13:00.517Z,22.20
2023-06-10T02:15:28.719Z,14.13
2023-06-10T02:17:57.065Z,18.13
2023-06-10T02:20:25.142Z,20.30
2023-06-10T02:22:53.262Z,16.73
2023-06-10T02:25:21.549Z,19.85
2023-06-10T02:27:49.636Z,19.05
2023-06-10T02:30:19.908Z,22.23
2023-06-10T02:32:49.314Z,19.48
2023-06-10T02:35:19.432Z,26.92
2023-06-10T02:37:47.597Z,15.13
2023-06-10T02:40:16.592Z,19.17
2023-06-10T02:42:45.297Z,17.60
2023-06-10T02:45:13.606Z,21.58
2023-06-10T02:47:45.674Z,16.58
2023-06-10T02:50:14.737Z,25.10
2023-06-10T02:52:56.068Z,18.45
2023-06-10T02:55:27.742Z,23.83
2023-06-10T02:58:01.682Z,22.55
2023-06-10T03:00:30.775Z,22.17
2023-06-10T03:03:04.549Z,17.90
2023-06-10T03:05:37.572Z,22.42
2023-06-10T03:08:07.907Z,21.25
2023-06-10T03:10:39.105Z,18.60
2023-06-10T03:13:07.219Z,20.70
2023-06-10T03:15:37.523Z,27.15
2023-06-10T03:18:10.365Z,18.92
2023-06-10T03:20:40.941Z,23.45
2023-06-10T03:23:11.720Z,17.42
2023-06-10T03:25:40.052Z,23.00
2023-06-10T03:28:08.306Z,23.23
2023-06-10T03:30:37.841Z,21.60
2023-06-10T03:33:06.405Z,21.90
2023-06-10T03:35:36.340Z,20.75
2023-06-10T03:38:06.179Z,19.77
2023-06-10T03:40:34.337Z,21.17
2023-06-10T03:43:03.306Z,27.08
2023-06-10T03:45:33.181Z,20.40
2023-06-10T03:48:02.473Z,19.00
2023-06-10T03:50:39.192Z,23.33
2023-06-10T03:53:07.363Z,19.98
2023-06-10T03:55:36.013Z,19.10
2023-06-10T03:58:04.213Z,16.83
2023-06-10T04:00:34.475Z,17.13
2023-06-10T04:03:02.619Z,16.55
2023-06-10T04:05:36.353Z,17.88
2023-06-10T04:08:06.271Z,20.40
2023-06-10T04:10:35.543Z,19.60
2023-06-10T04:13:04.414Z,19.50
2023-06-10T04:15:38.628Z,20.95
2023-06-10T04:18:10.892Z,25.13
2023-06-10T04:20:39.081Z,22.73
2023-06-10T04:23:08.706Z,18.58
2023-06-10T04:25:36.855Z,21.80
2023-06-10T04:28:05.427Z,21.65
2023-06-10T04:30:34.503Z,18.95
2023-06-10T04:33:03.259Z,18.70
2023-06-10T04:35:31.581Z,21.42
2023-06-10T04:38:03.925Z,19.40
2023-06-10T04:40:34.097Z,19.15
2023-06-10T04:43:02.960Z,25.42
2023-06-10T04:45:31.082Z,19.52
2023-06-10T04:47:59.984Z,19.88
2023-06-10T04:50:29.472Z,22.45
2023-06-10T04:52:58.281Z,24.50
2023-06-10T04:55:26.672Z,24.88
2023-06-10T04:57:56.232Z,18.02
2023-06-10T05:00:24.664Z,23.98
2023-06-10T05:02:53.209Z,22.75
2023-06-10T05:05:21.626Z,18.58
2023-06-10T05:07:49.613Z,20.65
2023-06-10T05:10:17.765Z,22.02
2023-06-10T05:12:45.760Z,19.80
2023-06-10T05:15:15.209Z,16.23
2023-06-10T05:17:43.328Z,20.27
2023-06-10T05:20:12.456Z,19.10
2023-06-10T05:22:40.467Z,22.98
2023-06-10T05:25:09.780Z,20.38
2023-06-10T05:27:39.062Z,20.77
2023-06-10T05:30:08.691Z,24.65
2023-06-10T05:32:38.226Z,20.02
2023-06-10T05:35:07.763Z,18.38
2023-06-10T05:37:37.913Z,18.17
2023-06-10T05:40:07.382Z,19.27
2023-06-10T05:42:35.396Z,26.58
2023-06-10T05:45:03.957Z,19.95
2023-06-10T05:47:32.394Z,19.63
2023-06-10T05:50:01.959Z,17.65
2023-06-10T05:52:30.088Z,18.40
2023-06-10T05:54:58.183Z,22.45
2023-06-10T05:57:26.244Z,19.25
2023-06-10T05:59:54.265Z,19.42
2023-06-10T06:02:22.409Z,28.05
2023-06-10T06:04:50.567Z,17.80
2023-06-10T06:07:21.746Z,24.50
2023-06-10T06:09:49.985Z,18.75
2023-06-10T06:12:18.041Z,22.92
2023-06-10T06:14:46.230Z,20.35
2023-06-10T06:17:14.305Z,21.30
2023-06-10T06:19:42.360Z,25.02
2023-06-10T06:22:10.350Z,23.92
2023-06-10T06:24:39.979Z,19.77
2023-06-10T06:27:08.318Z,19.98
2023-06-10T06:29:36.290Z,22.08
2023-06-10T06:32:05.176Z,20.02
2023-06-10T06:34:34.550Z,19.23
2023-06-10T06:37:02.616Z,15.50
2023-06-10T06:42:02.755Z,20.10
2023-06-10T06:44:48.796Z,19.02
2023-06-10T06:47:18.921Z,23.35
2023-06-10T06:49:47.022Z,21.02
2023-06-10T06:52:15.333Z,22.42
2023-06-10T06:54:43.641Z,21.83
2023-06-10T06:57:13.068Z,23.25
2023-06-10T06:59:41.121Z,22.00
2023-06-10T07:02:09.263Z,25.13
2023-06-10T07:04:37.325Z,21.00
2023-06-10T07:07:07.383Z,27.13
2023-06-10T07:09:35.441Z,27.75
2023-06-10T07:12:03.593Z,21.85
2023-06-10T07:14:33.011Z,23.73
2023-06-10T07:17:01.107Z,21.40
2023-06-10T07:19:29.138Z,26.83
2023-06-10T07:21:57.208Z,23.85
2023-06-10T07:24:25.488Z,20.80
2023-06-10T07:26:53.509Z,27.00
2023-06-10T07:29:21.591Z,28.65
2023-06-10T07:31:51.056Z,27.52
2023-06-10T07:34:19.172Z,23.73
2023-06-10T07:36:47.246Z,34.30
2023-06-10T07:39:15.383Z,27.75
2023-06-10T07:41:43.448Z,26.17
2023-06-10T07:44:11.610Z,23.13
2023-06-10T07:46:39.651Z,23.05
2023-06-10T07:49:09.193Z,22.65
2023-06-10T07:51:37.785Z,19.40
2023-06-10T07:54:05.954Z,23.92
2023-06-10T07:56:34.069Z,19.38
2023-06-10T07:59:02.295Z,25.70
2023-06-10T08:01:31.241Z,26.40
2023-06-10T08:03:59.642Z,22.55
2023-06-10T08:06:29.324Z,20.98
2023-06-10T08:08:57.328Z,26.50
2023-06-10T08:11:27.036Z,20.70
2023-06-10T08:13:55.052Z,22.00
2023-06-10T08:16:23.243Z,22.25
2023-06-10T08:18:54.900Z,21.25
2023-06-10T08:21:23.798Z,24.17
2023-06-10T08:23:56.705Z,19.20
2023-06-10T08:26:24.878Z,20.38
2023-06-10T08:28:52.922Z,27.38
2023-06-10T08:31:20.951Z,53.20
2023-06-10T08:33:49.079Z,24.08
2023-06-10T08:36:17.375Z,22.45
2023-06-10T08:38:45.885Z,24.65
2023-06-10T08:41:19.758Z,18.92
2023-06-10T08:43:56.199Z,20.63
2023-06-10T08:46:24.498Z,25.23
2023-06-10T08:48:57.511Z,21.73
2023-06-10T08:51:26.752Z,19.90
2023-06-10T08:54:02.954Z,20.98
2023-06-10T08:56:35.032Z,22.42
2023-06-10T08:59:04.246Z,21.35
2023-06-10T09:01:32.764Z,19.98
2023-06-10T09:04:01.735Z,21.30
2023-06-10T09:06:29.908Z,15.60
2023-06-10T09:09:01.737Z,19.25
2023-06-10T09:11:33.723Z,18.80
2023-06-10T09:14:01.780Z,19.45
2023-06-10T09:16:30.530Z,19.05
2023-06-10T09:18:59.911Z,19.67
2023-06-10T09:21:28.167Z,21.00
2023-06-10T09:23:56.409Z,16.95
2023-06-10T09:26:30.271Z,19.25
2023-06-10T09:29:06.308Z,18.48
2023-06-10T09:31:37.676Z,16.73
2023-06-10T09:34:10.864Z,23.55
2023-06-10T09:36:40.061Z,18.00
2023-06-10T09:39:16.560Z,18.75
2023-06-10T09:41:45.651Z,20.15
2023-06-10T09:44:17.038Z,15.77
2023-06-10T09:46:47.413Z,24.13
2023-06-10T09:49:16.047Z,18.95
2023-06-10T09:51:52.451Z,22.10
2023-06-10T09:54:20.663Z,17.30
2023-06-10T09:56:50.612Z,17.02
2023-06-10T09:59:30.434Z,15.88
2023-06-10T10:02:01.792Z,18.65
2023-06-10T10:04:30.754Z,19.17
2023-06-10T10:07:00.912Z,17.70
2023-06-10T10:09:29.217Z,18.20
2023-06-10T10:11:57.798Z,21.05
2023-06-10T10:14:28.340Z,17.35
2023-06-10T10:16:57.805Z,16.80
2023-06-10T10:19:30.801Z,15.45
2023-06-10T10:22:04.682Z,14.95
2023-06-10T10:24:36.207Z,13.90
2023-06-10T10:27:09.804Z,17.08
2023-06-10T10:29:41.606Z,13.50
2023-06-10T10:32:13.381Z,14.80
2023-06-10T10:34:51.034Z,13.38
2023-06-10T10:37:19.818Z,11.65
2023-06-10T10:39:48.196Z,14.27
2023-06-10T10:42:17.752Z,14.13
2023-06-10T10:44:47.593Z,14.10
2023-06-10T10:47:17.559Z,11.13
2023-06-10T10:49:47.219Z,13.15
2023-06-10T10:52:15.744Z,13.43
2023-06-10T10:54:47.594Z,11.45
2023-06-10T10:57:17.516Z,11.88
2023-06-10T10:59:53.310Z,9.68
2023-06-10T11:02:35.152Z,9.50
2023-06-10T11:05:05.298Z,9.57
2023-06-10T11:10:03.088Z,10.07
2023-06-10T11:12:52.391Z,10.45
2023-06-10T11:15:24.119Z,11.38
2023-06-10T11:18:12.403Z,11.43
2023-06-10T11:21:02.195Z,8.52
2023-06-10T11:23:41.272Z,11.23
2023-06-10T11:26:17.313Z,12.33
2023-06-10T11:29:06.186Z,11.00
2023-06-10T11:31:40.245Z,10.38
2023-06-10T11:34:09.569Z,13.30
2023-06-10T11:36:43.333Z,9.63
2023-06-10T11:39:12.108Z,9.98
2023-06-10T11:41:41.440Z,9.07
2023-06-10T11:44:11.214Z,10.88
2023-06-10T11:46:41.039Z,11.48
2023-06-10T11:51:41.664Z,8.98
2023-06-10T11:54:11.491Z,12.57
2023-06-10T11:56:39.576Z,10.23
2023-06-10T11:59:09.241Z,13.30
2023-06-10T12:01:41.440Z,10.32
2023-06-10T12:04:15.061Z,12.32
2023-06-10T12:06:45.266Z,8.60
2023-06-10T12:09:23.578Z,9.93
2023-06-10T12:11:54.017Z,8.23
2023-06-10T12:14:55.288Z,10.07
2023-06-10T12:17:24.946Z,8.63
2023-06-10T12:19:54.474Z,8.57
2023-06-10T12:22:24.467Z,9.68
2023-06-10T12:25:04.166Z,9.43
2023-06-10T12:27:32.975Z,10.35
2023-06-10T12:30:04.680Z,9.60
2023-06-10T12:32:39.506Z,9.77
2023-06-10T12:35:11.016Z,10.32
2023-06-10T12:37:43.516Z,10.05
2023-06-10T12:40:13.293Z,11.27
2023-06-10T12:42:42.766Z,10.75
2023-06-10T12:47:41.282Z,14.48
2023-06-10T12:50:13.237Z,9.48
2023-06-10T12:52:43.365Z,11.02
2023-06-10T12:55:12.318Z,9.40
2023-06-10T12:57:50.177Z,10.45
2023-06-10T13:00:19.685Z,10.13
2023-06-10T13:02:47.939Z,9.52
2023-06-10T13:05:17.991Z,9.25
2023-06-10T13:07:46.862Z,9.77
2023-06-10T13:10:15.756Z,11.65
2023-06-10T13:12:47.972Z,10.87
2023-06-10T13:15:17.334Z,9.25
2023-06-10T13:17:46.851Z,11.18
2023-06-10T13:20:15.261Z,9.32
2023-06-10T13:22:45.061Z,9.07
2023-06-10T13:25:13.520Z,13.07
2023-06-10T13:27:43.306Z,8.73
2023-06-10T13:30:13.235Z,8.25
2023-06-10T13:32:41.564Z,7.60
2023-06-10T13:35:11.035Z,9.57
2023-06-10T13:37:39.493Z,8.27
2023-06-10T13:40:10.818Z,8.43
2023-06-10T13:42:39.145Z,9.63
2023-06-10T13:45:09.051Z,9.68
2023-06-10T13:50:06.043Z,9.52
2023-06-10T13:52:34.139Z,9.80
2023-06-10T13:55:02.241Z,9.90
2023-06-10T13:57:31.844Z,11.95
2023-06-10T14:00:00.098Z,9.63
2023-06-10T14:02:28.751Z,9.73
2023-06-10T14:04:57.236Z,10.32
2023-06-10T14:07:27.179Z,10.27
2023-06-10T14:09:55.462Z,11.20
2023-06-10T14:12:23.580Z,12.82
2023-06-10T14:14:53.129Z,12.23
2023-06-10T14:17:21.450Z,12.90
2023-06-10T14:19:49.563Z,12.23
2023-06-10T14:22:17.690Z,12.10
2023-06-10T14:24:45.977Z,11.40
2023-06-10T14:27:14.231Z,15.10
2023-06-10T14:29:42.564Z,11.70
2023-06-10T14:32:12.170Z,13.93
2023-06-10T14:34:40.478Z,15.77
2023-06-10T14:37:09.258Z,14.85
2023-06-10T14:39:37.736Z,16.05
2023-06-10T14:42:07.386Z,19.48
2023-06-10T14:44:35.606Z,14.73
2023-06-10T14:47:03.834Z,16.90
2023-06-10T14:49:33.333Z,13.85
2023-06-10T14:52:01.399Z,14.10
2023-06-10T14:54:29.628Z,17.38
2023-06-10T14:56:57.763Z,16.25
2023-06-10T14:59:25.935Z,16.48
2023-06-10T15:01:56.948Z,16.67
2023-06-10T15:04:25.143Z,15.98
2023-06-10T15:06:54.602Z,14.65
2023-06-10T15:09:22.833Z,19.25
2023-06-10T15:11:51.027Z,16.38
2023-06-10T15:14:19.194Z,20.25
2023-06-10T15:16:47.482Z,17.52
2023-06-10T15:19:15.807Z,15.82
2023-06-10T15:21:44.040Z,14.85
2023-06-10T15:24:13.746Z,12.90
2023-06-10T15:26:42.066Z,13.57
2023-06-10T15:29:10.478Z,14.00
2023-06-10T15:31:38.849Z,17.70
2023-06-10T15:34:08.098Z,13.50
2023-06-10T15:36:37.490Z,12.30
2023-06-10T15:39:07.818Z,14.02
2023-06-10T15:41:37.525Z,12.63
2023-06-10T15:44:06.136Z,14.18
2023-06-10T15:46:35.609Z,14.38
2023-06-10T15:49:03.971Z,12.57
2023-06-10T15:51:32.207Z,11.25
2023-06-10T15:54:00.830Z,12.73
2023-06-10T15:56:32.785Z,11.95
2023-06-10T15:59:02.252Z,11.68
2023-06-10T16:01:30.602Z,10.77
2023-06-10T16:03:58.815Z,11.02
2023-06-10T16:06:27.472Z,13.45
2023-06-10T16:08:56.240Z,11.80
2023-06-10T16:11:24.524Z,11.82
2023-06-10T16:13:52.688Z,10.82
2023-06-10T16:16:22.182Z,12.23
2023-06-10T16:18:50.400Z,11.07
2023-06-10T16:21:18.518Z,11.77
2023-06-10T16:23:46.723Z,13.07
2023-06-10T16:26:14.968Z,13.05
2023-06-10T16:28:43.087Z,12.93
2023-06-10T16:31:11.370Z,11.10
2023-06-10T16:33:41.223Z,12.02
2023-06-10T16:36:09.637Z,14.88
2023-06-10T16:38:37.662Z,10.77
2023-06-10T16:41:05.884Z,15.25
2023-06-10T16:43:33.982Z,11.93
2023-06-10T16:46:02.249Z,11.85
2023-06-10T16:48:30.590Z,14.60
2023-06-10T16:51:00.052Z,11.70
2023-06-10T16:53:28.230Z,11.95
2023-06-10T16:55:56.441Z,11.68
2023-06-10T16:58:24.929Z,15.82
2023-06-10T17:00:53.948Z,13.70
2023-06-10T17:03:22.026Z,11.70
2023-06-10T17:05:50.158Z,11.27
2023-06-10T17:08:19.524Z,14.82
2023-06-10T17:10:47.608Z,13.38
2023-06-10T17:13:16.175Z,11.95
2023-06-10T17:15:44.785Z,12.25
2023-06-10T17:18:13.094Z,13.98
2023-06-10T17:20:41.494Z,12.60
2023-06-10T17:23:09.877Z,12.32
2023-06-10T17:25:39.644Z,13.02
2023-06-10T17:28:07.716Z,15.50
2023-06-10T17:30:36.023Z,13.93
2023-06-10T17:33:04.485Z,12.68
2023-06-10T17:35:32.816Z,12.30
2023-06-10T17:38:00.973Z,12.48
2023-06-10T17:40:29.099Z,13.25
2023-06-10T17:42:58.791Z,13.68
2023-06-10T17:45:26.900Z,12.93
2023-06-10T17:47:55.028Z,12.25
2023-06-10T17:50:23.271Z,13.25
2023-06-10T17:52:51.340Z,12.48
2023-06-10T17:55:19.461Z,13.82
2023-06-10T17:57:47.639Z,12.20
2023-06-10T18:00:17.978Z,13.75
2023-06-10T18:02:46.437Z,17.17
2023-06-10T18:05:14.960Z,11.50
2023-06-10T18:07:43.297Z,16.90
2023-06-10T18:10:11.997Z,15.30
2023-06-10T18:12:40.513Z,15.50
2023-06-10T18:15:10.316Z,14.68
2023-06-10T18:17:40.033Z,15.43
2023-06-10T18:20:09.566Z,17.77
2023-06-10T18:22:38.360Z,17.52
2023-06-10T18:25:07.149Z,13.80
2023-06-10T18:27:35.989Z,11.45
2023-06-10T18:30:04.377Z,15.88
2023-06-10T18:32:32.688Z,12.23
2023-06-10T18:35:02.167Z,10.40
2023-06-10T18:37:30.259Z,15.73
2023-06-10T18:39:58.641Z,14.63
2023-06-10T18:42:26.840Z,13.27
2023-06-10T18:44:55.027Z,11.57
2023-06-10T18:47:23.268Z,12.85
2023-06-10T18:49:51.509Z,14.60
2023-06-10T18:52:21.396Z,10.57
2023-06-10T18:54:49.615Z,13.48
2023-06-10T18:57:17.722Z,13.00
2023-06-10T18:59:45.783Z,12.45
2023-06-10T19:02:14.088Z,14.35
2023-06-10T19:04:42.417Z,11.35
2023-06-10T19:07:10.855Z,11.52
2023-06-10T19:09:40.653Z,11.85
2023-06-10T19:12:09.850Z,13.95
2023-06-10T19:14:40.831Z,11.00
2023-06-10T19:17:09.944Z,13.82
2023-06-10T19:19:38.526Z,16.70
2023-06-10T19:22:07.326Z,16.38
2023-06-10T19:24:35.478Z,14.43
2023-06-10T19:27:06.518Z,14.27
2023-06-10T19:29:34.808Z,13.43
2023-06-10T19:32:03.473Z,10.02
2023-06-10T19:34:31.699Z,9.15
2023-06-10T19:37:00.043Z,10.93
2023-06-10T19:39:28.384Z,10.70
2023-06-10T19:41:56.659Z,12.15
2023-06-10T19:44:26.449Z,11.10
2023-06-10T19:46:54.943Z,14.48
2023-06-10T19:49:23.257Z,13.15
2023-06-10T19:51:52.285Z,12.75
2023-06-10T19:54:21.162Z,12.32
2023-06-10T19:56:49.435Z,12.30
2023-06-10T19:59:17.538Z,13.77
2023-06-10T20:01:47.111Z,13.60
2023-06-10T20:04:15.725Z,13.27
2023-06-10T20:06:43.889Z,17.33
2023-06-10T20:09:12.397Z,16.88
2023-06-10T20:11:40.538Z,15.63
2023-06-10T20:14:08.843Z,13.00
2023-06-10T20:16:37.069Z,13.13
2023-06-10T20:19:06.720Z,16.52
2023-06-10T20:21:35.152Z,12.70
2023-06-10T20:24:05.884Z,12.32
2023-06-10T20:26:34.847Z,15.68
2023-06-10T20:29:03.594Z,14.60
2023-06-10T20:31:31.947Z,14.75
2023-06-10T20:34:00.204Z,13.35
2023-06-10T20:36:32.411Z,15.23
2023-06-10T20:39:01.136Z,13.25
2023-06-10T20:41:30.255Z,13.07
2023-06-10T20:43:59.215Z,13.75
2023-06-10T20:46:27.433Z,10.98
2023-06-10T20:48:55.524Z,15.65
2023-06-10T20:51:23.902Z,11.43
2023-06-10T20:53:53.385Z,13.40
2023-06-10T20:56:21.600Z,11.83
2023-06-10T20:58:49.845Z,14.25
2023-06-10T21:01:17.973Z,13.75
2023-06-10T21:03:46.163Z,13.48
2023-06-10T21:06:14.571Z,12.40
2023-06-10T21:08:42.987Z,14.48
2023-06-10T21:11:12.807Z,12.85
2023-06-10T21:13:41.760Z,14.55
2023-06-10T21:16:10.055Z,13.43
2023-06-10T21:18:38.596Z,16.50
2023-06-10T21:21:06.999Z,15.45
2023-06-10T21:23:36.003Z,13.02
2023-06-10T21:26:06.532Z,16.98
2023-06-10T21:31:05.251Z,14.63
2023-06-10T21:33:33.656Z,12.95
2023-06-10T21:36:02.330Z,13.50
2023-06-10T21:38:30.393Z,15.80
2023-06-10T21:40:58.467Z,11.98
2023-06-10T21:43:26.772Z,12.82
2023-06-10T21:45:57.581Z,12.18
2023-06-10T21:48:25.819Z,12.35
2023-06-10T21:50:53.936Z,11.68
2023-06-10T21:53:22.073Z,14.32
2023-06-10T21:55:50.046Z,14.50
2023-06-10T21:58:18.157Z,12.10
2023-06-10T22:00:46.368Z,15.20
2023-06-10T22:03:15.946Z,15.57
2023-06-10T22:05:44.448Z,16.60
2023-06-10T22:08:13.607Z,13.48
2023-06-10T22:10:42.530Z,17.65
2023-06-10T22:13:11.359Z,14.68
2023-06-10T22:15:39.657Z,11.98
2023-06-10T22:18:08.181Z,12.60
2023-06-10T22:20:37.610Z,14.18
2023-06-10T22:23:05.623Z,14.88
2023-06-10T22:25:33.716Z,14.35
2023-06-10T22:28:01.928Z,10.95
2023-06-10T22:30:29.887Z,15.05
2023-06-10T22:32:58.018Z,19.30
2023-06-10T22:35:26.177Z,16.92
2023-06-10T22:37:55.568Z,12.55
2023-06-10T22:40:23.709Z,14.43
2023-06-10T22:42:51.833Z,14.52
2023-06-10T22:45:20.114Z,12.68
2023-06-10T22:47:48.427Z,16.08
2023-06-10T22:50:17.416Z,13.32
2023-06-10T22:52:45.498Z,13.25
2023-06-10T22:55:14.993Z,14.48
2023-06-10T22:57:43.114Z,11.32
2023-06-10T23:00:12.528Z,14.38
2023-06-10T23:02:40.633Z,14.38
2023-06-10T23:05:10.689Z,16.52
2023-06-10T23:07:39.098Z,16.25
2023-06-10T23:10:07.945Z,13.82
2023-06-10T23:12:37.485Z,14.15
2023-06-10T23:15:06.644Z,14.05
2023-06-10T23:17:35.996Z,18.02
2023-06-10T23:20:04.429Z,14.80
2023-06-10T23:22:33.185Z,15.55
2023-06-10T23:25:05.064Z,12.50
2023-06-10T23:27:33.241Z,19.05
2023-06-10T23:30:02.670Z,13.55
2023-06-10T23:32:32.320Z,14.63
2023-06-10T23:35:00.528Z,11.87
2023-06-10T23:37:29.170Z,18.00
2023-06-10T23:39:57.229Z,14.93
2023-06-10T23:42:26.333Z,16.77
2023-06-10T23:44:54.817Z,14.02
2023-06-10T23:47:24.651Z,12.50
2023-06-10T23:49:53.153Z,14.88
2023-06-10T23:52:22.688Z,17.63
2023-06-10T23:54:50.880Z,21.33
2023-06-10T23:57:18.954Z,16.80
2023-06-10T23:59:47.315Z,16.50
